createdAt,value
2019-05-23T00:00:17.301Z,0.00
2019-05-23T00:01:17.286Z,0.00
2019-05-23T00:02:17.264Z,0.00
2019-05-23T00:04:34.834Z,0.00
2019-05-23T00:05:34.819Z,0.00
2019-05-23T00:06:34.841Z,0.00
2019-05-23T00:07:34.781Z,0.00
2019-05-23T00:08:35.089Z,0.00
2019-05-23T00:10:17.273Z,0.00
2019-05-23T00:11:17.457Z,0.00
2019-05-23T00:12:17.244Z,0.00
2019-05-23T00:13:17.221Z,0.00
2019-05-23T00:14:17.206Z,0.00
2019-05-23T00:15:17.202Z,0.00
2019-05-23T00:16:17.173Z,0.00
2019-05-23T00:17:17.158Z,0.00
2019-05-23T00:18:20.818Z,0.00
2019-05-23T00:19:17.124Z,0.00
2019-05-23T00:20:17.104Z,0.00
2019-05-23T00:21:17.087Z,0.00
2019-05-23T00:22:17.065Z,0.00
2019-05-23T00:23:17.056Z,0.00
2019-05-23T00:24:17.039Z,0.00
2019-05-23T00:25:17.084Z,0.00
2019-05-23T00:26:17.005Z,0.00
2019-05-23T00:27:16.990Z,0.00
2019-05-23T00:28:16.967Z,0.00
2019-05-23T00:29:16.969Z,0.00
2019-05-23T00:34:25.341Z,0.00
2019-05-23T00:35:25.325Z,0.00
2019-05-23T00:36:25.311Z,0.00
2019-05-23T00:37:25.291Z,0.00
2019-05-23T00:38:25.272Z,0.00
2019-05-23T00:39:25.255Z,0.00
2019-05-23T00:40:25.237Z,0.00
2019-05-23T00:41:25.222Z,0.00
2019-05-23T00:42:25.203Z,0.00
2019-05-23T00:43:25.512Z,0.00
2019-05-23T00:45:17.737Z,0.00
2019-05-23T00:46:17.899Z,0.00
2019-05-23T00:47:17.887Z,0.00
2019-05-23T00:48:17.662Z,0.00
2019-05-23T00:49:17.639Z,0.00
2019-05-23T00:50:17.620Z,0.00
2019-05-23T00:51:17.607Z,0.00
2019-05-23T00:57:06.698Z,0.00
2019-05-23T00:58:49.211Z,0.00
2019-05-23T00:59:49.202Z,0.00
2019-05-23T01:00:49.181Z,0.00
2019-05-23T01:01:49.162Z,0.00
2019-05-23T01:02:49.143Z,0.00
2019-05-23T01:03:49.122Z,0.00
2019-05-23T01:04:49.106Z,0.00
2019-05-23T01:05:49.094Z,0.00
2019-05-23T01:06:49.068Z,0.00
2019-05-23T01:07:49.054Z,0.00
2019-05-23T01:08:49.036Z,0.00
2019-05-23T01:09:49.017Z,0.00
2019-05-23T01:10:49.001Z,0.00
2019-05-23T01:11:48.984Z,0.00
2019-05-23T01:12:48.966Z,0.00
2019-05-23T01:13:48.952Z,0.00
2019-05-23T01:14:48.938Z,0.00
2019-05-23T01:15:48.914Z,0.00
2019-05-23T01:16:48.904Z,0.00
2019-05-23T01:17:48.882Z,0.00
2019-05-23T01:18:48.861Z,0.00
2019-05-23T01:19:48.854Z,0.00
2019-05-23T01:20:48.832Z,0.00
2019-05-23T01:21:48.811Z,0.00
2019-05-23T01:22:48.796Z,0.00
2019-05-23T01:23:48.778Z,0.00
2019-05-23T01:24:48.758Z,0.00
2019-05-23T01:25:48.742Z,0.00
2019-05-23T01:26:48.724Z,0.00
2019-05-23T01:27:48.709Z,0.00
2019-05-23T01:28:48.690Z,0.00
2019-05-23T01:29:50.036Z,0.00
2019-05-23T01:30:48.653Z,0.00
2019-05-23T01:31:48.641Z,0.00
2019-05-23T01:32:48.617Z,0.00
2019-05-23T01:33:48.600Z,0.00
2019-05-23T01:34:48.583Z,0.00
2019-05-23T01:35:48.564Z,0.00
2019-05-23T01:36:48.556Z,0.00
2019-05-23T01:37:48.530Z,0.00
2019-05-23T01:38:48.515Z,0.00
2019-05-23T01:39:48.496Z,0.00
2019-05-23T01:40:48.481Z,0.00
2019-05-23T01:41:48.461Z,0.00
2019-05-23T01:42:48.443Z,0.00
2019-05-23T01:43:48.424Z,0.00
2019-05-23T01:44:48.408Z,0.00
2019-05-23T01:45:48.392Z,0.00
2019-05-23T01:46:48.376Z,0.00
2019-05-23T01:47:48.359Z,0.00
2019-05-23T01:48:48.343Z,0.00
2019-05-23T01:49:48.324Z,0.00
2019-05-23T01:50:48.310Z,0.00
2019-05-23T01:51:48.291Z,0.00
2019-05-23T01:52:48.270Z,0.00
2019-05-23T01:53:48.251Z,0.00
2019-05-23T01:54:48.232Z,0.00
2019-05-23T01:55:48.222Z,0.00
2019-05-23T01:56:48.201Z,0.00
2019-05-23T01:57:48.179Z,0.00
2019-05-23T01:58:48.181Z,0.00
2019-05-23T01:59:48.151Z,0.00
2019-05-23T02:00:48.133Z,0.00
2019-05-23T02:01:48.116Z,0.00
2019-05-23T02:02:48.096Z,0.00
2019-05-23T02:04:40.621Z,0.00
2019-05-23T02:05:40.602Z,0.00
2019-05-23T02:06:40.587Z,0.00
2019-05-23T02:07:40.569Z,0.00
2019-05-23T02:08:40.558Z,0.00
2019-05-23T02:09:40.547Z,0.00
2019-05-23T02:11:33.070Z,0.00
2019-05-23T02:12:33.041Z,0.00
2019-05-23T02:13:33.024Z,0.00
2019-05-23T02:14:33.010Z,0.00
2019-05-23T02:15:32.993Z,0.00
2019-05-23T02:16:32.969Z,0.00
2019-05-23T02:17:32.960Z,0.00
2019-05-23T02:18:32.938Z,0.00
2019-05-23T02:19:32.921Z,0.00
2019-05-23T02:20:32.903Z,0.00
2019-05-23T02:21:32.881Z,0.00
2019-05-23T02:22:32.865Z,0.00
2019-05-23T02:23:32.848Z,0.00
2019-05-23T02:24:32.830Z,0.00
2019-05-23T02:25:32.816Z,0.00
2019-05-23T02:26:32.793Z,0.00
2019-05-23T02:27:32.787Z,0.00
2019-05-23T02:28:32.763Z,0.00
2019-05-23T02:29:32.969Z,0.00
2019-05-23T02:30:35.269Z,0.00
2019-05-23T02:31:32.704Z,0.00
2019-05-23T02:32:32.694Z,0.00
2019-05-23T02:33:32.672Z,0.00
2019-05-23T02:34:32.659Z,0.00
2019-05-23T02:35:32.635Z,0.00
2019-05-23T02:38:16.531Z,0.00
2019-05-23T02:39:15.862Z,0.00
2019-05-23T02:40:15.844Z,0.00
2019-05-23T02:41:15.830Z,0.00
2019-05-23T02:42:15.808Z,0.00
2019-05-23T02:43:15.792Z,0.00
2019-05-23T02:44:15.771Z,0.00
2019-05-23T02:45:15.762Z,0.00
2019-05-23T02:46:15.737Z,0.00
2019-05-23T02:47:15.722Z,0.00
2019-05-23T02:48:15.702Z,0.00
2019-05-23T02:49:15.687Z,0.00
2019-05-23T02:50:15.668Z,0.00
2019-05-23T02:51:15.650Z,0.00
2019-05-23T02:52:15.631Z,0.00
2019-05-23T02:53:15.621Z,0.00
2019-05-23T02:54:15.594Z,0.00
2019-05-23T02:55:15.581Z,0.00
2019-05-23T02:56:15.560Z,0.00
2019-05-23T02:57:15.542Z,0.00
2019-05-23T02:58:15.526Z,0.00
2019-05-23T02:59:15.519Z,0.00
2019-05-23T03:00:15.492Z,0.00
2019-05-23T03:01:15.482Z,0.00
2019-05-23T03:02:15.461Z,0.00
2019-05-23T03:03:15.437Z,0.00
2019-05-23T03:04:15.424Z,0.00
2019-05-23T03:05:15.411Z,0.00
2019-05-23T03:06:15.393Z,0.00
2019-05-23T03:07:15.366Z,0.00
2019-05-23T03:08:15.351Z,0.00
2019-05-23T03:09:15.329Z,0.00
2019-05-23T03:10:15.316Z,5.63
2019-05-23T03:11:15.296Z,5.63
2019-05-23T03:12:15.277Z,5.63
2019-05-23T03:13:15.261Z,5.63
2019-05-23T03:14:15.247Z,5.63
2019-05-23T03:15:15.219Z,5.63
2019-05-23T03:16:15.204Z,5.63
2019-05-23T03:17:15.186Z,5.63
2019-05-23T03:18:15.176Z,5.63
2019-05-23T03:19:15.151Z,5.63
2019-05-23T03:20:15.140Z,11.25
2019-05-23T03:21:15.119Z,11.25
2019-05-23T03:22:15.100Z,11.25
2019-05-23T03:23:15.083Z,11.25
2019-05-23T03:24:15.063Z,11.25
2019-05-23T03:25:15.047Z,11.25
2019-05-23T03:26:15.031Z,16.88
2019-05-23T03:27:15.014Z,16.88
2019-05-23T03:28:14.995Z,16.88
2019-05-23T03:29:14.974Z,16.88
2019-05-23T03:30:14.963Z,16.88
2019-05-23T03:31:28.881Z,16.88
2019-05-23T03:32:14.948Z,16.88
2019-05-23T03:33:15.056Z,16.88
2019-05-23T03:34:14.887Z,16.88
2019-05-23T03:35:14.872Z,16.88
2019-05-23T03:36:14.850Z,16.88
2019-05-23T03:37:14.833Z,22.50
2019-05-23T03:38:14.818Z,22.50
2019-05-23T03:39:14.796Z,22.50
2019-05-23T03:40:14.784Z,22.50
2019-05-23T03:41:14.779Z,22.50
2019-05-23T03:42:14.741Z,22.50
2019-05-23T03:43:14.724Z,22.50
2019-05-23T03:44:14.709Z,22.50
2019-05-23T03:45:14.711Z,28.13
2019-05-23T03:46:14.684Z,28.13
2019-05-23T03:47:14.672Z,28.13
2019-05-23T03:48:14.636Z,28.13
2019-05-23T03:49:15.025Z,28.13
2019-05-23T03:50:14.625Z,28.13
2019-05-23T03:51:14.603Z,28.13
2019-05-23T03:52:14.584Z,33.75
2019-05-23T03:53:14.871Z,33.75
2019-05-23T03:55:02.091Z,33.75
2019-05-23T03:56:02.470Z,33.75
2019-05-23T04:02:40.534Z,45.00
2019-05-23T04:03:40.789Z,50.63
2019-05-23T04:04:40.494Z,50.63
2019-05-23T04:05:40.481Z,50.63
2019-05-23T04:06:40.477Z,50.63
2019-05-23T04:07:40.443Z,50.63
2019-05-23T04:08:40.475Z,50.63
2019-05-23T04:09:40.407Z,50.63
2019-05-23T04:10:40.394Z,50.63
2019-05-23T04:11:40.369Z,56.25
2019-05-23T04:12:40.368Z,56.25
2019-05-23T04:13:40.353Z,56.25
2019-05-23T04:14:40.326Z,61.88
2019-05-23T04:15:40.310Z,61.88
2019-05-23T04:16:40.286Z,67.50
2019-05-23T04:17:40.265Z,73.13
2019-05-23T04:18:40.249Z,78.75
2019-05-23T04:19:40.231Z,84.38
2019-05-23T04:20:40.221Z,84.38
2019-05-23T04:21:40.202Z,90.00
2019-05-23T04:22:40.171Z,90.00
2019-05-23T04:23:40.184Z,90.00
2019-05-23T04:24:40.148Z,95.63
2019-05-23T04:25:40.120Z,95.63
2019-05-23T04:26:40.108Z,95.63
2019-05-23T04:27:40.091Z,95.63
2019-05-23T04:28:40.066Z,95.63
2019-05-23T04:29:40.052Z,95.63
2019-05-23T04:30:40.034Z,95.63
2019-05-23T04:31:40.020Z,101.25
2019-05-23T04:32:39.999Z,101.25
2019-05-23T04:33:39.981Z,106.88
2019-05-23T04:34:39.966Z,106.88
2019-05-23T04:35:40.018Z,112.50
2019-05-23T04:36:39.938Z,112.50
2019-05-23T04:37:39.913Z,112.50
2019-05-23T04:38:39.894Z,112.50
2019-05-23T04:39:39.880Z,112.50
2019-05-23T04:40:39.858Z,112.50
2019-05-23T04:41:39.843Z,118.13
2019-05-23T04:42:39.823Z,118.13
2019-05-23T04:43:39.807Z,123.75
2019-05-23T04:44:44.144Z,129.38
2019-05-23T04:45:39.940Z,129.38
2019-05-23T04:46:39.748Z,135.00
2019-05-23T04:47:39.734Z,135.00
2019-05-23T04:48:39.722Z,140.63
2019-05-23T04:49:39.700Z,140.63
2019-05-23T04:50:39.684Z,140.63
2019-05-23T04:51:39.659Z,135.00
2019-05-23T04:52:39.648Z,135.00
2019-05-23T04:53:39.631Z,135.00
2019-05-23T04:54:39.624Z,135.00
2019-05-23T04:55:39.595Z,129.38
2019-05-23T04:56:39.577Z,129.38
2019-05-23T04:57:39.561Z,129.38
2019-05-23T04:58:39.545Z,129.38
2019-05-23T04:59:39.528Z,129.38
2019-05-23T05:00:39.830Z,129.38
2019-05-23T05:06:49.275Z,129.38
2019-05-23T05:07:49.285Z,135.00
2019-05-23T05:08:49.233Z,135.00
2019-05-23T05:09:49.213Z,135.00
2019-05-23T05:10:49.193Z,129.38
2019-05-23T05:11:49.175Z,135.00
2019-05-23T05:12:49.163Z,129.38
2019-05-23T05:13:49.138Z,129.38
2019-05-23T05:14:49.178Z,129.38
2019-05-23T05:15:49.107Z,135.00
2019-05-23T05:16:49.089Z,129.38
2019-05-23T05:17:49.068Z,129.38
2019-05-23T05:18:49.049Z,129.38
2019-05-23T05:19:49.033Z,123.75
2019-05-23T05:20:49.022Z,123.75
2019-05-23T05:21:49.002Z,123.75
2019-05-23T05:22:48.977Z,129.38
2019-05-23T05:23:48.962Z,123.75
2019-05-23T05:24:48.965Z,118.13
2019-05-23T05:25:48.928Z,112.50
2019-05-23T05:26:48.915Z,106.88
2019-05-23T05:27:48.893Z,112.50
2019-05-23T05:28:48.876Z,112.50
2019-05-23T05:29:48.861Z,106.88
2019-05-23T05:30:48.837Z,112.50
2019-05-23T05:31:48.817Z,112.50
2019-05-23T05:32:48.803Z,135.00
2019-05-23T05:33:48.786Z,129.38
2019-05-23T05:34:48.765Z,123.75
2019-05-23T05:35:48.745Z,123.75
2019-05-23T05:36:48.730Z,123.75
2019-05-23T05:37:48.710Z,123.75
2019-05-23T05:38:48.695Z,123.75
2019-05-23T05:39:48.675Z,123.75
2019-05-23T05:40:48.652Z,123.75
2019-05-23T05:41:48.637Z,123.75
2019-05-23T05:42:48.619Z,118.13
2019-05-23T05:43:48.601Z,123.75
2019-05-23T05:44:48.584Z,118.13
2019-05-23T05:45:48.566Z,135.00
2019-05-23T05:46:48.547Z,135.00
2019-05-23T05:47:48.531Z,129.38
2019-05-23T05:48:48.516Z,135.00
2019-05-23T05:49:48.493Z,135.00
2019-05-23T05:50:48.478Z,135.00
2019-05-23T05:51:48.455Z,135.00
2019-05-23T05:52:48.447Z,135.00
2019-05-23T05:53:48.503Z,135.00
2019-05-23T05:54:48.405Z,140.63
2019-05-23T05:55:48.394Z,140.63
2019-05-23T05:56:48.369Z,146.25
2019-05-23T05:57:48.352Z,140.63
2019-05-23T05:58:48.338Z,135.00
2019-05-23T05:59:48.315Z,135.00
2019-05-23T06:00:48.312Z,140.63
2019-05-23T06:01:48.303Z,140.63
2019-05-23T06:03:03.392Z,140.63
2019-05-23T06:03:48.251Z,140.63
2019-05-23T06:04:48.227Z,135.00
2019-05-23T06:05:48.213Z,140.63
2019-05-23T06:06:50.222Z,146.25
2019-05-23T06:07:48.176Z,151.88
2019-05-23T06:08:48.155Z,151.88
2019-05-23T06:09:48.136Z,151.88
2019-05-23T06:10:48.120Z,151.88
2019-05-23T06:11:48.102Z,157.50
2019-05-23T06:12:48.083Z,157.50
2019-05-23T06:13:48.063Z,157.50
2019-05-23T06:14:48.054Z,157.50
2019-05-23T06:15:48.026Z,157.50
2019-05-23T06:16:48.009Z,157.50
2019-05-23T06:17:47.993Z,163.13
2019-05-23T06:18:47.974Z,163.13
2019-05-23T06:19:48.104Z,163.13
2019-05-23T06:20:47.941Z,168.75
2019-05-23T06:21:47.935Z,163.13
2019-05-23T06:22:47.903Z,163.13
2019-05-23T06:23:47.886Z,163.13
2019-05-23T06:26:10.469Z,168.75
2019-05-23T06:27:52.971Z,168.75
2019-05-23T06:28:52.950Z,168.75
2019-05-23T06:29:52.934Z,168.75
2019-05-23T06:30:52.923Z,174.38
2019-05-23T06:31:52.897Z,174.38
2019-05-23T06:32:52.880Z,180.00
2019-05-23T06:33:52.866Z,180.00
2019-05-23T06:34:52.844Z,185.63
2019-05-23T06:35:52.828Z,185.63
2019-05-23T06:36:52.820Z,185.63
2019-05-23T06:37:52.842Z,191.25
2019-05-23T06:38:52.778Z,191.25
2019-05-23T06:39:52.758Z,191.25
2019-05-23T06:40:52.744Z,191.25
2019-05-23T06:41:52.722Z,196.88
2019-05-23T06:45:28.504Z,208.13
2019-05-23T06:46:28.490Z,196.88
2019-05-23T06:47:28.520Z,208.13
2019-05-23T06:48:28.455Z,213.75
2019-05-23T06:49:28.438Z,208.13
2019-05-23T06:50:28.422Z,208.13
2019-05-23T06:51:28.403Z,208.13
2019-05-23T06:52:28.394Z,213.75
2019-05-23T06:53:28.370Z,219.38
2019-05-23T06:54:28.360Z,225.00
2019-05-23T06:55:28.339Z,230.63
2019-05-23T06:56:28.324Z,236.25
2019-05-23T06:57:28.313Z,236.25
2019-05-23T06:58:28.421Z,247.50
2019-05-23T06:59:28.265Z,247.50
2019-05-23T07:00:28.260Z,247.50
2019-05-23T07:01:28.238Z,253.13
2019-05-23T07:02:31.855Z,253.13
2019-05-23T07:03:41.731Z,258.75
2019-05-23T07:04:28.192Z,264.38
2019-05-23T07:05:28.166Z,264.38
2019-05-23T07:06:28.152Z,253.13
2019-05-23T07:07:28.141Z,275.63
2019-05-23T07:08:28.329Z,270.00
2019-05-23T07:09:28.102Z,270.00
2019-05-23T07:10:28.095Z,275.63
2019-05-23T07:11:28.066Z,275.63
2019-05-23T07:12:28.059Z,281.25
2019-05-23T07:13:28.033Z,286.88
2019-05-23T07:14:28.026Z,281.25
2019-05-23T07:15:28.016Z,275.63
2019-05-23T07:16:27.987Z,275.63
2019-05-23T07:17:27.970Z,281.25
2019-05-23T07:18:27.955Z,281.25
2019-05-23T07:19:27.944Z,292.50
2019-05-23T07:20:27.919Z,298.13
2019-05-23T07:21:27.979Z,309.38
2019-05-23T07:22:27.956Z,309.38
2019-05-23T07:23:27.878Z,309.38
2019-05-23T07:24:27.862Z,275.63
2019-05-23T07:25:27.845Z,326.25
2019-05-23T07:26:27.824Z,320.63
2019-05-23T07:27:27.816Z,326.25
2019-05-23T07:28:27.794Z,320.63
2019-05-23T07:29:27.780Z,326.25
2019-05-23T07:30:27.865Z,331.88
2019-05-23T07:31:27.746Z,331.88
2019-05-23T07:32:27.733Z,331.88
2019-05-23T07:33:27.719Z,337.50
2019-05-23T07:34:27.695Z,343.13
2019-05-23T07:35:27.690Z,354.38
2019-05-23T07:36:27.674Z,360.00
2019-05-23T07:37:27.663Z,371.25
2019-05-23T07:38:27.647Z,388.13
2019-05-23T07:39:27.623Z,393.75
2019-05-23T07:40:27.612Z,416.25
2019-05-23T07:41:27.591Z,455.63
2019-05-23T07:42:27.577Z,483.75
2019-05-23T07:43:27.565Z,551.25
2019-05-23T07:44:27.551Z,624.38
2019-05-23T07:45:27.538Z,635.63
2019-05-23T07:46:27.511Z,832.50
2019-05-23T07:47:27.516Z,1456.88
2019-05-23T07:48:27.495Z,1805.63
2019-05-23T07:49:27.482Z,3510.00
2019-05-23T07:50:27.488Z,3819.38
2019-05-23T07:51:29.748Z,3695.63
2019-05-23T07:52:27.442Z,3465.00
2019-05-23T07:53:27.450Z,3498.75
2019-05-23T07:54:27.411Z,3622.50
2019-05-23T07:55:27.399Z,3588.75
2019-05-23T07:56:27.388Z,3667.50
2019-05-23T07:57:27.371Z,3729.38
2019-05-23T07:58:27.361Z,3712.50
2019-05-23T07:59:27.348Z,2671.88
2019-05-23T08:00:27.340Z,3791.25
2019-05-23T08:01:27.327Z,3971.25
2019-05-23T08:02:27.323Z,4151.25
2019-05-23T08:03:27.308Z,4179.38
2019-05-23T08:04:27.298Z,4033.13
2019-05-23T08:05:27.294Z,3960.00
2019-05-23T08:06:27.283Z,3999.38
2019-05-23T08:07:27.281Z,3701.25
2019-05-23T08:08:27.274Z,3746.25
2019-05-23T08:09:27.260Z,3448.13
2019-05-23T08:10:33.676Z,3071.25
2019-05-23T08:11:27.331Z,1636.88
2019-05-23T08:12:27.238Z,3706.88
2019-05-23T08:13:27.230Z,4100.63
2019-05-23T08:14:27.236Z,3926.25
2019-05-23T08:15:27.230Z,3960.00
2019-05-23T08:16:27.222Z,4303.13
2019-05-23T08:17:27.233Z,4140.00
2019-05-23T08:18:30.432Z,4162.50
2019-05-23T08:19:27.202Z,4061.25
2019-05-23T08:20:27.202Z,3819.38
2019-05-23T08:21:27.193Z,4156.88
2019-05-23T08:22:27.188Z,4196.25
2019-05-23T08:23:27.182Z,4263.75
2019-05-23T08:24:27.177Z,4275.00
2019-05-23T08:25:27.179Z,4325.63
2019-05-23T08:26:27.181Z,4185.00
2019-05-23T08:27:27.174Z,4618.13
2019-05-23T08:28:27.167Z,4500.00
2019-05-23T08:29:27.166Z,4888.13
2019-05-23T08:30:27.160Z,4500.00
2019-05-23T08:31:27.158Z,1833.75
2019-05-23T08:32:27.154Z,4680.00
2019-05-23T08:33:27.150Z,4696.88
2019-05-23T08:34:40.581Z,4629.38
2019-05-23T08:35:27.369Z,4758.75
2019-05-23T08:36:27.153Z,4781.25
2019-05-23T08:37:27.144Z,4848.75
2019-05-23T08:38:27.143Z,4803.75
2019-05-23T08:39:27.140Z,4725.00
2019-05-23T08:40:27.147Z,4775.63
2019-05-23T08:41:27.136Z,5000.63
2019-05-23T08:42:27.187Z,5073.75
2019-05-23T08:43:27.134Z,5163.75
2019-05-23T08:44:27.129Z,5242.50
2019-05-23T08:45:27.130Z,5220.00
2019-05-23T08:46:27.133Z,5248.13
2019-05-23T08:47:27.137Z,5310.00
2019-05-23T08:48:27.128Z,5253.75
2019-05-23T08:49:27.127Z,5208.75
2019-05-23T08:50:27.138Z,4983.75
2019-05-23T08:51:27.127Z,4837.50
2019-05-23T08:52:27.123Z,4764.38
2019-05-23T08:53:27.122Z,4725.00
2019-05-23T08:54:27.123Z,4741.88
2019-05-23T08:55:27.168Z,4826.25
2019-05-23T08:56:27.127Z,4955.63
2019-05-23T08:57:27.160Z,4702.50
2019-05-23T08:58:27.123Z,4533.75
2019-05-23T08:59:27.126Z,4702.50
2019-05-23T09:00:27.155Z,4944.38
2019-05-23T09:01:27.122Z,5034.38
2019-05-23T09:02:27.117Z,5085.00
2019-05-23T09:03:27.125Z,5366.25
2019-05-23T09:04:27.121Z,5253.75
2019-05-23T09:05:27.321Z,5248.13
2019-05-23T09:06:27.117Z,5236.88
2019-05-23T09:07:27.122Z,5383.13
2019-05-23T09:08:27.122Z,5225.63
2019-05-23T09:09:29.918Z,5248.13
2019-05-23T09:10:27.115Z,5270.63
2019-05-23T09:11:27.119Z,5416.88
2019-05-23T09:12:27.119Z,5506.88
2019-05-23T09:13:27.122Z,5473.13
2019-05-23T09:14:27.120Z,5383.13
2019-05-23T09:15:27.122Z,5360.63
2019-05-23T09:16:27.171Z,5377.50
2019-05-23T09:17:27.123Z,5343.75
2019-05-23T09:18:27.124Z,5377.50
2019-05-23T09:19:27.123Z,5506.88
2019-05-23T09:20:27.127Z,5529.38
2019-05-23T09:21:27.127Z,5490.00
2019-05-23T09:22:27.125Z,5321.25
2019-05-23T09:23:27.203Z,5259.38
2019-05-23T09:24:27.125Z,5287.50
2019-05-23T09:25:27.130Z,5326.88
2019-05-23T09:26:27.124Z,5529.38
2019-05-23T09:27:27.132Z,5630.63
2019-05-23T09:28:27.132Z,5557.50
2019-05-23T09:29:27.127Z,5506.88
2019-05-23T09:30:27.131Z,5647.50
2019-05-23T09:31:27.130Z,5698.13
2019-05-23T09:32:27.139Z,5692.50
2019-05-23T09:33:27.135Z,5591.25
2019-05-23T09:34:27.131Z,5703.75
2019-05-23T09:35:27.141Z,5625.00
2019-05-23T09:36:27.138Z,5394.38
2019-05-23T09:37:27.137Z,5220.00
2019-05-23T09:38:27.134Z,5056.88
2019-05-23T09:39:27.134Z,4736.25
2019-05-23T09:40:27.145Z,4708.13
2019-05-23T09:41:27.142Z,4646.25
2019-05-23T09:42:27.148Z,4770.00
2019-05-23T09:43:27.143Z,4978.13
2019-05-23T09:44:27.150Z,5158.13
2019-05-23T09:45:27.143Z,5450.63
2019-05-23T09:46:27.144Z,5563.13
2019-05-23T09:47:27.148Z,5619.38
2019-05-23T09:48:27.376Z,5602.50
2019-05-23T09:49:27.152Z,5546.25
2019-05-23T09:50:27.147Z,5461.88
2019-05-23T09:51:27.152Z,5568.75
2019-05-23T09:52:27.154Z,5518.13
2019-05-23T09:53:27.153Z,5523.75
2019-05-23T09:54:27.163Z,5433.75
2019-05-23T09:55:27.158Z,5383.13
2019-05-23T09:56:27.159Z,5501.25
2019-05-23T09:57:27.162Z,5400.00
2019-05-23T09:58:27.163Z,5321.25
2019-05-23T09:59:27.188Z,5450.63
2019-05-23T10:00:27.280Z,5495.63
2019-05-23T10:01:27.178Z,5625.00
2019-05-23T10:02:27.161Z,5686.88
2019-05-23T10:03:27.164Z,3695.63
2019-05-23T10:04:27.169Z,5703.75
2019-05-23T10:05:42.093Z,5670.00
2019-05-23T10:06:27.162Z,5518.13
2019-05-23T10:07:27.175Z,4230.00
2019-05-23T10:08:27.171Z,1968.75
2019-05-23T10:09:27.176Z,1170.00
2019-05-23T10:10:27.171Z,1141.88
2019-05-23T10:11:27.171Z,1130.63
2019-05-23T10:12:27.173Z,1141.88
2019-05-23T10:13:38.315Z,1153.13
2019-05-23T10:14:27.174Z,1164.38
2019-05-23T10:15:27.175Z,1305.00
2019-05-23T10:16:27.180Z,3026.25
2019-05-23T10:17:27.199Z,5056.88
2019-05-23T10:18:27.176Z,5467.50
2019-05-23T10:19:27.178Z,5265.00
2019-05-23T10:20:27.184Z,5152.50
2019-05-23T10:21:27.178Z,5293.13
2019-05-23T10:22:27.185Z,5580.00
2019-05-23T10:23:27.183Z,5731.88
2019-05-23T10:24:27.185Z,5833.13
2019-05-23T10:25:27.182Z,5861.25
2019-05-23T10:26:27.187Z,5883.75
2019-05-23T10:27:27.197Z,5703.75
2019-05-23T10:28:27.190Z,5602.50
2019-05-23T10:29:27.195Z,5518.13
2019-05-23T10:30:27.191Z,5664.38
2019-05-23T10:31:27.197Z,5917.50
2019-05-23T10:32:27.197Z,5990.63
2019-05-23T10:33:27.199Z,5956.88
2019-05-23T10:34:27.196Z,5956.88
2019-05-23T10:35:27.198Z,5866.88
2019-05-23T10:36:27.199Z,5911.88
2019-05-23T10:37:27.202Z,6097.50
2019-05-23T10:38:29.468Z,6159.38
2019-05-23T10:39:27.204Z,6018.75
2019-05-23T10:40:27.210Z,6114.38
2019-05-23T10:41:27.208Z,6030.00
2019-05-23T10:42:27.210Z,6187.50
2019-05-23T10:43:27.212Z,6091.88
2019-05-23T10:44:27.218Z,5900.63
2019-05-23T10:45:27.212Z,5703.75
2019-05-23T10:46:27.217Z,5625.00
2019-05-23T10:47:27.219Z,5731.88
2019-05-23T10:48:27.225Z,5956.88
2019-05-23T10:49:27.221Z,6018.75
2019-05-23T10:50:41.958Z,6120.00
2019-05-23T10:51:27.227Z,6215.63
2019-05-23T10:52:27.233Z,6210.00
2019-05-23T10:53:27.231Z,6125.63
2019-05-23T10:54:27.251Z,5956.88
2019-05-23T10:55:27.252Z,5951.25
2019-05-23T10:56:27.239Z,6063.75
2019-05-23T10:57:27.249Z,6165.00
2019-05-23T10:58:27.241Z,6193.13
2019-05-23T10:59:27.570Z,6114.38
2019-05-23T11:00:27.257Z,6024.38
2019-05-23T11:01:27.253Z,5928.75
2019-05-23T11:02:27.359Z,5906.25
2019-05-23T11:03:27.260Z,5940.00
2019-05-23T11:04:27.257Z,5968.13
2019-05-23T11:05:27.257Z,5973.75
2019-05-23T11:06:27.319Z,5861.25
2019-05-23T11:07:27.266Z,5726.25
2019-05-23T11:08:29.976Z,5512.50
2019-05-23T11:09:37.172Z,5360.63
2019-05-23T11:10:27.337Z,5169.38
2019-05-23T11:11:27.322Z,4978.13
2019-05-23T11:12:27.279Z,5006.25
2019-05-23T11:13:27.288Z,4966.88
2019-05-23T11:14:27.287Z,5079.38
2019-05-23T11:15:27.290Z,5265.00
2019-05-23T11:16:27.291Z,5450.63
2019-05-23T11:17:27.295Z,5619.38
2019-05-23T11:18:27.310Z,5720.63
2019-05-23T11:19:27.306Z,5703.75
2019-05-23T11:20:27.301Z,5658.75
2019-05-23T11:21:27.311Z,5608.13
2019-05-23T11:22:27.305Z,5551.88
2019-05-23T11:23:27.310Z,5743.13
2019-05-23T11:24:27.310Z,5686.88
2019-05-23T11:25:27.314Z,5765.63
2019-05-23T11:26:27.317Z,5613.75
2019-05-23T11:27:27.317Z,5478.75
2019-05-23T11:28:27.339Z,5383.13
2019-05-23T11:29:27.695Z,5343.75
2019-05-23T11:30:27.327Z,5281.88
2019-05-23T11:31:27.333Z,5203.13
2019-05-23T11:32:27.332Z,5085.00
2019-05-23T11:33:27.331Z,5068.13
2019-05-23T11:34:27.335Z,4843.13
2019-05-23T11:35:27.340Z,4792.50
2019-05-23T11:36:35.474Z,5051.25
2019-05-23T11:37:27.344Z,4961.25
2019-05-23T11:38:27.349Z,5180.63
2019-05-23T11:39:27.356Z,5180.63
2019-05-23T11:40:27.355Z,5146.88
2019-05-23T11:41:27.354Z,5096.25
2019-05-23T11:42:27.357Z,5096.25
2019-05-23T11:43:27.359Z,4989.38
2019-05-23T11:44:27.366Z,5051.25
2019-05-23T11:45:27.366Z,5011.88
2019-05-23T11:46:27.370Z,4944.38
2019-05-23T11:47:30.695Z,4786.88
2019-05-23T11:48:27.372Z,4798.13
2019-05-23T11:49:27.373Z,4764.38
2019-05-23T11:50:27.377Z,4758.75
2019-05-23T11:51:27.674Z,4601.25
2019-05-23T11:52:27.380Z,4404.38
2019-05-23T11:53:27.383Z,4483.13
2019-05-23T11:54:27.384Z,4657.50
2019-05-23T11:55:27.403Z,4758.75
2019-05-23T11:56:27.393Z,4786.88
2019-05-23T11:57:27.408Z,4623.75
2019-05-23T11:58:31.922Z,4786.88
2019-05-23T11:59:27.404Z,4775.63
2019-05-23T12:00:27.413Z,4899.38
2019-05-23T12:01:27.404Z,4933.13
2019-05-23T12:02:27.401Z,4955.63
2019-05-23T12:03:27.433Z,4831.88
2019-05-23T12:04:27.411Z,4826.25
2019-05-23T12:05:27.416Z,4888.13
2019-05-23T12:06:27.418Z,5028.75
2019-05-23T12:07:27.457Z,4961.25
2019-05-23T12:08:27.427Z,5023.13
2019-05-23T12:09:27.412Z,4978.13
2019-05-23T12:10:27.423Z,5073.75
2019-05-23T12:11:27.418Z,5101.88
2019-05-23T12:12:27.422Z,5107.50
2019-05-23T12:13:27.426Z,5169.38
2019-05-23T12:14:27.424Z,5135.63
2019-05-23T12:15:27.430Z,5242.50
2019-05-23T12:16:27.427Z,5090.63
2019-05-23T12:17:27.439Z,4573.13
2019-05-23T12:18:27.432Z,4871.25
2019-05-23T12:19:27.793Z,4516.88
2019-05-23T12:20:27.436Z,4297.50
2019-05-23T12:21:27.446Z,3976.88
2019-05-23T12:22:27.457Z,3886.88
2019-05-23T12:23:27.443Z,4044.38
2019-05-23T12:24:27.455Z,4393.13
2019-05-23T12:25:27.445Z,4511.25
2019-05-23T12:26:27.631Z,4713.75
2019-05-23T12:27:27.450Z,4747.50
2019-05-23T12:28:27.453Z,3875.63
2019-05-23T12:29:27.447Z,3127.50
2019-05-23T12:30:27.449Z,4865.63
2019-05-23T12:31:27.459Z,4674.38
2019-05-23T12:32:27.464Z,4438.13
2019-05-23T12:33:27.461Z,4370.63
2019-05-23T12:34:27.470Z,4275.00
2019-05-23T12:35:27.461Z,4173.75
2019-05-23T12:36:27.465Z,3988.13
2019-05-23T12:37:27.479Z,3909.38
2019-05-23T12:38:27.478Z,3864.38
2019-05-23T12:39:27.510Z,3864.38
2019-05-23T12:40:27.477Z,3780.00
2019-05-23T12:41:27.487Z,3706.88
2019-05-23T12:42:27.479Z,3645.00
2019-05-23T12:43:27.480Z,3701.25
2019-05-23T12:44:27.478Z,3594.38
2019-05-23T12:45:27.480Z,3521.25
2019-05-23T12:46:27.480Z,3408.75
2019-05-23T12:47:27.483Z,3234.38
2019-05-23T12:48:27.480Z,2514.38
2019-05-23T12:49:27.503Z,1957.50
2019-05-23T12:50:27.485Z,2418.75
2019-05-23T12:51:27.484Z,2986.88
2019-05-23T12:52:27.491Z,3341.25
2019-05-23T12:53:27.490Z,3363.75
2019-05-23T12:54:27.483Z,3082.50
2019-05-23T12:55:27.485Z,2930.63
2019-05-23T12:56:27.486Z,3003.75
2019-05-23T12:57:27.486Z,3166.88
2019-05-23T12:58:27.511Z,3071.25
2019-05-23T12:59:27.493Z,2925.00
2019-05-23T13:00:27.517Z,2908.13
2019-05-23T13:01:27.495Z,3031.88
2019-05-23T13:02:27.504Z,2604.38
2019-05-23T13:03:27.512Z,1473.75
2019-05-23T13:04:27.489Z,860.63